<?xml version="1.0" encoding="UTF-8" standalone="no" ?>
<gpx xmlns="http://www.topografix.com/GPX/1/1" xmlns:xsi="http://www.w3.org/2001/XMLSchema-instance" xsi:schemaLocation="http://www.topografix.com/GPX/1/1 http://www.topografix.com/GPX/1/1/gpx.xsd" version="1.1" creator="VisuGPX - https://www.visugpx.com">
  <metadata>
    <name>Landrecies Cyclisme</name>
  </metadata>
  <trk>
    <name><![CDATA[Landrecies Cyclisme]]></name>
    <trkseg>
      <trkpt lat="50.12478" lon="3.67812">
        <ele>128.80000305176</ele>
        <time>2020-07-08T13:13:45.000Z</time>
      </trkpt>
      <trkpt lat="50.12479" lon="3.67812">
        <ele>128.80000305176</ele>
        <time>2020-07-08T13:13:46.000Z</time>
      </trkpt>
      <trkpt lat="50.12482" lon="3.67819">
        <ele>129</ele>
        <time>2020-07-08T13:13:50.000Z</time>
      </trkpt>
      <trkpt lat="50.12486" lon="3.67822">
        <ele>129</ele>
        <time>2020-07-08T13:13:52.000Z</time>
      </trkpt>
      <trkpt lat="50.12499" lon="3.67839">
        <ele>129</ele>
        <time>2020-07-08T13:13:58.000Z</time>
      </trkpt>
      <trkpt lat="50.12521" lon="3.67868">
        <ele>129</ele>
        <time>2020-07-08T13:14:06.000Z</time>
      </trkpt>
      <trkpt lat="50.12532" lon="3.6788">
        <ele>129</ele>
        <time>2020-07-08T13:14:09.000Z</time>
      </trkpt>
      <trkpt lat="50.12539" lon="3.67886">
        <ele>129</ele>
        <time>2020-07-08T13:14:11.000Z</time>
      </trkpt>
      <trkpt lat="50.12569" lon="3.67905">
        <ele>129</ele>
        <time>2020-07-08T13:14:18.000Z</time>
      </trkpt>
      <trkpt lat="50.12593" lon="3.67931">
        <ele>129</ele>
        <time>2020-07-08T13:14:24.000Z</time>
      </trkpt>
      <trkpt lat="50.12595" lon="3.67936">
        <ele>129</ele>
        <time>2020-07-08T13:14:25.000Z</time>
      </trkpt>
      <trkpt lat="50.12609" lon="3.67968">
        <ele>129</ele>
        <time>2020-07-08T13:14:31.000Z</time>
      </trkpt>
      <trkpt lat="50.12627" lon="3.6801">
        <ele>129</ele>
        <time>2020-07-08T13:14:38.000Z</time>
      </trkpt>
      <trkpt lat="50.12631" lon="3.68016">
        <ele>129</ele>
        <time>2020-07-08T13:14:39.000Z</time>
      </trkpt>
      <trkpt lat="50.12648" lon="3.68046">
        <ele>129</ele>
        <time>2020-07-08T13:14:44.000Z</time>
      </trkpt>
      <trkpt lat="50.12674" lon="3.68087">
        <ele>129</ele>
        <time>2020-07-08T13:14:51.000Z</time>
      </trkpt>
      <trkpt lat="50.12686" lon="3.6812">
        <ele>129</ele>
        <time>2020-07-08T13:14:56.000Z</time>
      </trkpt>
      <trkpt lat="50.1269" lon="3.68126">
        <ele>129</ele>
        <time>2020-07-08T13:14:57.000Z</time>
      </trkpt>
      <trkpt lat="50.12702" lon="3.68151">
        <ele>129</ele>
        <time>2020-07-08T13:15:01.000Z</time>
      </trkpt>
      <trkpt lat="50.12728" lon="3.68199">
        <ele>129</ele>
        <time>2020-07-08T13:15:09.000Z</time>
      </trkpt>
      <trkpt lat="50.12734" lon="3.68226">
        <ele>129</ele>
        <time>2020-07-08T13:15:13.000Z</time>
      </trkpt>
      <trkpt lat="50.12743" lon="3.68254">
        <ele>129</ele>
        <time>2020-07-08T13:15:17.000Z</time>
      </trkpt>
      <trkpt lat="50.12755" lon="3.68304">
        <ele>129</ele>
        <time>2020-07-08T13:15:23.000Z</time>
      </trkpt>
      <trkpt lat="50.12769" lon="3.6835">
        <ele>129</ele>
        <time>2020-07-08T13:15:29.000Z</time>
      </trkpt>
      <trkpt lat="50.12789" lon="3.68408">
        <ele>129</ele>
        <time>2020-07-08T13:15:37.000Z</time>
      </trkpt>
      <trkpt lat="50.12798" lon="3.68438">
        <ele>129</ele>
        <time>2020-07-08T13:15:42.000Z</time>
      </trkpt>
      <trkpt lat="50.12797" lon="3.68449">
        <ele>129</ele>
        <time>2020-07-08T13:15:45.000Z</time>
      </trkpt>
      <trkpt lat="50.12793" lon="3.68453">
        <ele>129</ele>
        <time>2020-07-08T13:15:46.000Z</time>
      </trkpt>
      <trkpt lat="50.12776" lon="3.68467">
        <ele>129</ele>
        <time>2020-07-08T13:15:50.000Z</time>
      </trkpt>
      <trkpt lat="50.1274" lon="3.68493">
        <ele>129</ele>
        <time>2020-07-08T13:15:57.000Z</time>
      </trkpt>
      <trkpt lat="50.12732" lon="3.68503">
        <ele>129</ele>
        <time>2020-07-08T13:15:59.000Z</time>
      </trkpt>
      <trkpt lat="50.1273" lon="3.6851">
        <ele>129</ele>
        <time>2020-07-08T13:16:00.000Z</time>
      </trkpt>
      <trkpt lat="50.12739" lon="3.68532">
        <ele>129</ele>
        <time>2020-07-08T13:16:03.000Z</time>
      </trkpt>
      <trkpt lat="50.12743" lon="3.68539">
        <ele>129</ele>
        <time>2020-07-08T13:16:04.000Z</time>
      </trkpt>
      <trkpt lat="50.12754" lon="3.6856">
        <ele>129</ele>
        <time>2020-07-08T13:16:08.000Z</time>
      </trkpt>
      <trkpt lat="50.12755" lon="3.6857">
        <ele>129</ele>
        <time>2020-07-08T13:16:10.000Z</time>
      </trkpt>
      <trkpt lat="50.1275" lon="3.68577">
        <ele>129</ele>
        <time>2020-07-08T13:16:11.000Z</time>
      </trkpt>
      <trkpt lat="50.12733" lon="3.68603">
        <ele>129</ele>
        <time>2020-07-08T13:16:15.000Z</time>
      </trkpt>
      <trkpt lat="50.12712" lon="3.68641">
        <ele>129</ele>
        <time>2020-07-08T13:16:21.000Z</time>
      </trkpt>
      <trkpt lat="50.12709" lon="3.68667">
        <ele>129</ele>
        <time>2020-07-08T13:16:26.000Z</time>
      </trkpt>
      <trkpt lat="50.12726" lon="3.68684">
        <ele>129</ele>
        <time>2020-07-08T13:16:29.000Z</time>
      </trkpt>
      <trkpt lat="50.12733" lon="3.68695">
        <ele>129</ele>
        <time>2020-07-08T13:16:31.000Z</time>
      </trkpt>
      <trkpt lat="50.1273" lon="3.68707">
        <ele>129</ele>
        <time>2020-07-08T13:16:33.000Z</time>
      </trkpt>
      <trkpt lat="50.12721" lon="3.68721">
        <ele>129</ele>
        <time>2020-07-08T13:16:36.000Z</time>
      </trkpt>
      <trkpt lat="50.12714" lon="3.68731">
        <ele>129</ele>
        <time>2020-07-08T13:16:38.000Z</time>
      </trkpt>
      <trkpt lat="50.12697" lon="3.68754">
        <ele>129</ele>
        <time>2020-07-08T13:16:42.000Z</time>
      </trkpt>
      <trkpt lat="50.12669" lon="3.68789">
        <ele>129.39999389648</ele>
        <time>2020-07-08T13:16:49.000Z</time>
      </trkpt>
      <trkpt lat="50.12665" lon="3.68793">
        <ele>129.80000305176</ele>
        <time>2020-07-08T13:16:50.000Z</time>
      </trkpt>
      <trkpt lat="50.12662" lon="3.68798">
        <ele>130.19999694824</ele>
        <time>2020-07-08T13:16:51.000Z</time>
      </trkpt>
      <trkpt lat="50.12658" lon="3.68803">
        <ele>130.60000610352</ele>
        <time>2020-07-08T13:16:52.000Z</time>
      </trkpt>
      <trkpt lat="50.12655" lon="3.68807">
        <ele>131</ele>
        <time>2020-07-08T13:16:53.000Z</time>
      </trkpt>
      <trkpt lat="50.12635" lon="3.68805">
        <ele>131</ele>
        <time>2020-07-08T13:16:57.000Z</time>
      </trkpt>
      <trkpt lat="50.12622" lon="3.68776">
        <ele>131</ele>
        <time>2020-07-08T13:17:01.000Z</time>
      </trkpt>
      <trkpt lat="50.12616" lon="3.68762">
        <ele>130.60000610352</ele>
        <time>2020-07-08T13:17:03.000Z</time>
      </trkpt>
      <trkpt lat="50.12612" lon="3.68756">
        <ele>130.19999694824</ele>
        <time>2020-07-08T13:17:04.000Z</time>
      </trkpt>
      <trkpt lat="50.12609" lon="3.68749">
        <ele>129.80000305176</ele>
        <time>2020-07-08T13:17:05.000Z</time>
      </trkpt>
      <trkpt lat="50.12606" lon="3.68742">
        <ele>129.39999389648</ele>
        <time>2020-07-08T13:17:06.000Z</time>
      </trkpt>
      <trkpt lat="50.12603" lon="3.68735">
        <ele>129</ele>
        <time>2020-07-08T13:17:07.000Z</time>
      </trkpt>
      <trkpt lat="50.12589" lon="3.68711">
        <ele>129</ele>
        <time>2020-07-08T13:17:11.000Z</time>
      </trkpt>
      <trkpt lat="50.12585" lon="3.68708">
        <ele>129</ele>
        <time>2020-07-08T13:17:12.000Z</time>
      </trkpt>
      <trkpt lat="50.1258" lon="3.68707">
        <ele>129</ele>
        <time>2020-07-08T13:17:13.000Z</time>
      </trkpt>
      <trkpt lat="50.12566" lon="3.68713">
        <ele>129</ele>
        <time>2020-07-08T13:17:16.000Z</time>
      </trkpt>
      <trkpt lat="50.12562" lon="3.68715">
        <ele>129</ele>
        <time>2020-07-08T13:17:17.000Z</time>
      </trkpt>
      <trkpt lat="50.12539" lon="3.68723">
        <ele>129</ele>
        <time>2020-07-08T13:17:22.000Z</time>
      </trkpt>
      <trkpt lat="50.12535" lon="3.68726">
        <ele>129</ele>
        <time>2020-07-08T13:17:23.000Z</time>
      </trkpt>
      <trkpt lat="50.12517" lon="3.68733">
        <ele>129</ele>
        <time>2020-07-08T13:17:27.000Z</time>
      </trkpt>
      <trkpt lat="50.12476" lon="3.68749">
        <ele>129</ele>
        <time>2020-07-08T13:17:36.000Z</time>
      </trkpt>
      <trkpt lat="50.12457" lon="3.68754">
        <ele>129</ele>
        <time>2020-07-08T13:17:40.000Z</time>
      </trkpt>
      <trkpt lat="50.12447" lon="3.68758">
        <ele>129</ele>
        <time>2020-07-08T13:17:42.000Z</time>
      </trkpt>
      <trkpt lat="50.12421" lon="3.68782">
        <ele>129</ele>
        <time>2020-07-08T13:17:48.000Z</time>
      </trkpt>
      <trkpt lat="50.12409" lon="3.688">
        <ele>129</ele>
        <time>2020-07-08T13:17:51.000Z</time>
      </trkpt>
      <trkpt lat="50.124" lon="3.68812">
        <ele>129</ele>
        <time>2020-07-08T13:17:53.000Z</time>
      </trkpt>
      <trkpt lat="50.12377" lon="3.68844">
        <ele>129</ele>
        <time>2020-07-08T13:17:59.000Z</time>
      </trkpt>
      <trkpt lat="50.12339" lon="3.68896">
        <ele>129</ele>
        <time>2020-07-08T13:18:08.000Z</time>
      </trkpt>
      <trkpt lat="50.1231" lon="3.68935">
        <ele>129</ele>
        <time>2020-07-08T13:18:16.000Z</time>
      </trkpt>
      <trkpt lat="50.12294" lon="3.68958">
        <ele>129.39999389648</ele>
        <time>2020-07-08T13:18:20.000Z</time>
      </trkpt>
      <trkpt lat="50.1229" lon="3.68964">
        <ele>129.80000305176</ele>
        <time>2020-07-08T13:18:21.000Z</time>
      </trkpt>
      <trkpt lat="50.12286" lon="3.6897">
        <ele>130.19999694824</ele>
        <time>2020-07-08T13:18:22.000Z</time>
      </trkpt>
      <trkpt lat="50.12281" lon="3.68975">
        <ele>130.80000305176</ele>
        <time>2020-07-08T13:18:23.000Z</time>
      </trkpt>
      <trkpt lat="50.12277" lon="3.6898">
        <ele>131.19999694824</ele>
        <time>2020-07-08T13:18:24.000Z</time>
      </trkpt>
      <trkpt lat="50.12246" lon="3.69025">
        <ele>131.19999694824</ele>
        <time>2020-07-08T13:18:32.000Z</time>
      </trkpt>
      <trkpt lat="50.12227" lon="3.69051">
        <ele>131.19999694824</ele>
        <time>2020-07-08T13:18:38.000Z</time>
      </trkpt>
      <trkpt lat="50.12224" lon="3.69056">
        <ele>131.19999694824</ele>
        <time>2020-07-08T13:18:39.000Z</time>
      </trkpt>
      <trkpt lat="50.12216" lon="3.69067">
        <ele>131.19999694824</ele>
        <time>2020-07-08T13:18:43.000Z</time>
      </trkpt>
      <trkpt lat="50.12216" lon="3.69068">
        <ele>131.19999694824</ele>
        <time>2020-07-08T13:18:44.000Z</time>
      </trkpt>
      <trkpt lat="50.12214" lon="3.69062">
        <ele>131.19999694824</ele>
        <time>2020-07-08T13:18:56.000Z</time>
      </trkpt>
      <trkpt lat="50.12213" lon="3.69058">
        <ele>131.19999694824</ele>
        <time>2020-07-08T13:18:57.000Z</time>
      </trkpt>
      <trkpt lat="50.12201" lon="3.69038">
        <ele>131.19999694824</ele>
        <time>2020-07-08T13:19:04.000Z</time>
      </trkpt>
      <trkpt lat="50.12196" lon="3.69032">
        <ele>131.19999694824</ele>
        <time>2020-07-08T13:19:21.000Z</time>
      </trkpt>
      <trkpt lat="50.12191" lon="3.69026">
        <ele>131.19999694824</ele>
        <time>2020-07-08T13:19:23.000Z</time>
      </trkpt>
      <trkpt lat="50.12178" lon="3.69011">
        <ele>131.19999694824</ele>
        <time>2020-07-08T13:19:27.000Z</time>
      </trkpt>
      <trkpt lat="50.12174" lon="3.69009">
        <ele>131.19999694824</ele>
        <time>2020-07-08T13:19:28.000Z</time>
      </trkpt>
      <trkpt lat="50.12161" lon="3.69014">
        <ele>131.19999694824</ele>
        <time>2020-07-08T13:19:31.000Z</time>
      </trkpt>
      <trkpt lat="50.12153" lon="3.69024">
        <ele>131.19999694824</ele>
        <time>2020-07-08T13:19:33.000Z</time>
      </trkpt>
      <trkpt lat="50.12149" lon="3.69029">
        <ele>131.60000610352</ele>
        <time>2020-07-08T13:19:34.000Z</time>
      </trkpt>
      <trkpt lat="50.12145" lon="3.69035">
        <ele>132</ele>
        <time>2020-07-08T13:19:35.000Z</time>
      </trkpt>
      <trkpt lat="50.12141" lon="3.69041">
        <ele>132.39999389648</ele>
        <time>2020-07-08T13:19:36.000Z</time>
      </trkpt>
      <trkpt lat="50.12137" lon="3.69048">
        <ele>132.80000305176</ele>
        <time>2020-07-08T13:19:37.000Z</time>
      </trkpt>
      <trkpt lat="50.12133" lon="3.69054">
        <ele>133.19999694824</ele>
        <time>2020-07-08T13:19:38.000Z</time>
      </trkpt>
      <trkpt lat="50.12129" lon="3.69059">
        <ele>133.19999694824</ele>
        <time>2020-07-08T13:19:39.000Z</time>
      </trkpt>
      <trkpt lat="50.12122" lon="3.6907">
        <ele>133.19999694824</ele>
        <time>2020-07-08T13:19:41.000Z</time>
      </trkpt>
      <trkpt lat="50.12106" lon="3.69097">
        <ele>133.19999694824</ele>
        <time>2020-07-08T13:19:47.000Z</time>
      </trkpt>
      <trkpt lat="50.12095" lon="3.69116">
        <ele>133.19999694824</ele>
        <time>2020-07-08T13:19:52.000Z</time>
      </trkpt>
      <trkpt lat="50.12083" lon="3.69134">
        <ele>133.19999694824</ele>
        <time>2020-07-08T13:19:57.000Z</time>
      </trkpt>
      <trkpt lat="50.12082" lon="3.69149">
        <ele>133.19999694824</ele>
        <time>2020-07-08T13:20:01.000Z</time>
      </trkpt>
      <trkpt lat="50.12084" lon="3.69153">
        <ele>133.19999694824</ele>
        <time>2020-07-08T13:20:02.000Z</time>
      </trkpt>
      <trkpt lat="50.12097" lon="3.69165">
        <ele>133.19999694824</ele>
        <time>2020-07-08T13:20:05.000Z</time>
      </trkpt>
      <trkpt lat="50.12129" lon="3.69192">
        <ele>133.19999694824</ele>
        <time>2020-07-08T13:20:12.000Z</time>
      </trkpt>
      <trkpt lat="50.1217" lon="3.69224">
        <ele>133.19999694824</ele>
        <time>2020-07-08T13:20:20.000Z</time>
      </trkpt>
      <trkpt lat="50.12201" lon="3.69251">
        <ele>133.19999694824</ele>
        <time>2020-07-08T13:20:26.000Z</time>
      </trkpt>
      <trkpt lat="50.12204" lon="3.69257">
        <ele>133.19999694824</ele>
        <time>2020-07-08T13:20:27.000Z</time>
      </trkpt>
      <trkpt lat="50.12221" lon="3.69283">
        <ele>133.19999694824</ele>
        <time>2020-07-08T13:20:31.000Z</time>
      </trkpt>
      <trkpt lat="50.12246" lon="3.69328">
        <ele>133.19999694824</ele>
        <time>2020-07-08T13:20:38.000Z</time>
      </trkpt>
      <trkpt lat="50.12251" lon="3.6934">
        <ele>133.19999694824</ele>
        <time>2020-07-08T13:20:40.000Z</time>
      </trkpt>
      <trkpt lat="50.12254" lon="3.69353">
        <ele>133.19999694824</ele>
        <time>2020-07-08T13:20:42.000Z</time>
      </trkpt>
      <trkpt lat="50.12258" lon="3.69366">
        <ele>133.19999694824</ele>
        <time>2020-07-08T13:20:46.000Z</time>
      </trkpt>
      <trkpt lat="50.12258" lon="3.69376">
        <ele>132.80000305176</ele>
        <time>2020-07-08T13:20:48.000Z</time>
      </trkpt>
      <trkpt lat="50.12255" lon="3.69381">
        <ele>132.39999389648</ele>
        <time>2020-07-08T13:20:49.000Z</time>
      </trkpt>
      <trkpt lat="50.12252" lon="3.69387">
        <ele>132</ele>
        <time>2020-07-08T13:20:50.000Z</time>
      </trkpt>
      <trkpt lat="50.12248" lon="3.69393">
        <ele>131.60000610352</ele>
        <time>2020-07-08T13:20:51.000Z</time>
      </trkpt>
      <trkpt lat="50.12244" lon="3.69398">
        <ele>131.19999694824</ele>
        <time>2020-07-08T13:20:52.000Z</time>
      </trkpt>
      <trkpt lat="50.12233" lon="3.69414">
        <ele>131.19999694824</ele>
        <time>2020-07-08T13:20:55.000Z</time>
      </trkpt>
      <trkpt lat="50.12221" lon="3.69429">
        <ele>131.19999694824</ele>
        <time>2020-07-08T13:20:58.000Z</time>
      </trkpt>
      <trkpt lat="50.12207" lon="3.69448">
        <ele>131.19999694824</ele>
        <time>2020-07-08T13:21:02.000Z</time>
      </trkpt>
      <trkpt lat="50.12206" lon="3.69454">
        <ele>131.19999694824</ele>
        <time>2020-07-08T13:21:03.000Z</time>
      </trkpt>
      <trkpt lat="50.12208" lon="3.69462">
        <ele>131.19999694824</ele>
        <time>2020-07-08T13:21:05.000Z</time>
      </trkpt>
      <trkpt lat="50.12221" lon="3.69465">
        <ele>131.19999694824</ele>
        <time>2020-07-08T13:21:08.000Z</time>
      </trkpt>
      <trkpt lat="50.12223" lon="3.69467">
        <ele>131.19999694824</ele>
        <time>2020-07-08T13:21:09.000Z</time>
      </trkpt>
      <trkpt lat="50.12239" lon="3.69471">
        <ele>131.19999694824</ele>
        <time>2020-07-08T13:21:12.000Z</time>
      </trkpt>
      <trkpt lat="50.12253" lon="3.69473">
        <ele>131.60000610352</ele>
        <time>2020-07-08T13:21:14.000Z</time>
      </trkpt>
      <trkpt lat="50.12259" lon="3.69473">
        <ele>132</ele>
        <time>2020-07-08T13:21:15.000Z</time>
      </trkpt>
      <trkpt lat="50.12266" lon="3.69474">
        <ele>132.39999389648</ele>
        <time>2020-07-08T13:21:16.000Z</time>
      </trkpt>
      <trkpt lat="50.12272" lon="3.69475">
        <ele>132.80000305176</ele>
        <time>2020-07-08T13:21:17.000Z</time>
      </trkpt>
      <trkpt lat="50.12279" lon="3.69476">
        <ele>133.19999694824</ele>
        <time>2020-07-08T13:21:18.000Z</time>
      </trkpt>
      <trkpt lat="50.12291" lon="3.69475">
        <ele>133.19999694824</ele>
        <time>2020-07-08T13:21:20.000Z</time>
      </trkpt>
      <trkpt lat="50.12314" lon="3.69474">
        <ele>133.19999694824</ele>
        <time>2020-07-08T13:21:24.000Z</time>
      </trkpt>
      <trkpt lat="50.12346" lon="3.69474">
        <ele>133.19999694824</ele>
        <time>2020-07-08T13:21:30.000Z</time>
      </trkpt>
      <trkpt lat="50.12364" lon="3.6948">
        <ele>133.19999694824</ele>
        <time>2020-07-08T13:21:34.000Z</time>
      </trkpt>
      <trkpt lat="50.12372" lon="3.69485">
        <ele>133.19999694824</ele>
        <time>2020-07-08T13:21:36.000Z</time>
      </trkpt>
      <trkpt lat="50.12401" lon="3.69501">
        <ele>133.19999694824</ele>
        <time>2020-07-08T13:21:42.000Z</time>
      </trkpt>
      <trkpt lat="50.12415" lon="3.69526">
        <ele>133.19999694824</ele>
        <time>2020-07-08T13:21:46.000Z</time>
      </trkpt>
      <trkpt lat="50.12419" lon="3.69532">
        <ele>133.19999694824</ele>
        <time>2020-07-08T13:21:47.000Z</time>
      </trkpt>
      <trkpt lat="50.12437" lon="3.69582">
        <ele>133.19999694824</ele>
        <time>2020-07-08T13:21:54.000Z</time>
      </trkpt>
      <trkpt lat="50.12455" lon="3.69626">
        <ele>133.19999694824</ele>
        <time>2020-07-08T13:22:01.000Z</time>
      </trkpt>
      <trkpt lat="50.12459" lon="3.69628">
        <ele>133.19999694824</ele>
        <time>2020-07-08T13:22:02.000Z</time>
      </trkpt>
      <trkpt lat="50.12473" lon="3.69624">
        <ele>133.19999694824</ele>
        <time>2020-07-08T13:22:05.000Z</time>
      </trkpt>
      <trkpt lat="50.12502" lon="3.69609">
        <ele>133.19999694824</ele>
        <time>2020-07-08T13:22:10.000Z</time>
      </trkpt>
      <trkpt lat="50.12507" lon="3.69605">
        <ele>133.19999694824</ele>
        <time>2020-07-08T13:22:11.000Z</time>
      </trkpt>
      <trkpt lat="50.12542" lon="3.69588">
        <ele>133.19999694824</ele>
        <time>2020-07-08T13:22:17.000Z</time>
      </trkpt>
      <trkpt lat="50.12564" lon="3.69577">
        <ele>133.19999694824</ele>
        <time>2020-07-08T13:22:21.000Z</time>
      </trkpt>
      <trkpt lat="50.12571" lon="3.69574">
        <ele>133.19999694824</ele>
        <time>2020-07-08T13:22:22.000Z</time>
      </trkpt>
      <trkpt lat="50.12608" lon="3.69558">
        <ele>133.19999694824</ele>
        <time>2020-07-08T13:22:29.000Z</time>
      </trkpt>
      <trkpt lat="50.1264" lon="3.69543">
        <ele>133.19999694824</ele>
        <time>2020-07-08T13:22:36.000Z</time>
      </trkpt>
      <trkpt lat="50.12648" lon="3.69537">
        <ele>133.19999694824</ele>
        <time>2020-07-08T13:22:38.000Z</time>
      </trkpt>
      <trkpt lat="50.12659" lon="3.69523">
        <ele>133.19999694824</ele>
        <time>2020-07-08T13:22:41.000Z</time>
      </trkpt>
      <trkpt lat="50.12661" lon="3.69518">
        <ele>133.19999694824</ele>
        <time>2020-07-08T13:22:42.000Z</time>
      </trkpt>
      <trkpt lat="50.12663" lon="3.69512">
        <ele>133.19999694824</ele>
        <time>2020-07-08T13:22:43.000Z</time>
      </trkpt>
      <trkpt lat="50.12666" lon="3.69505">
        <ele>132.60000610352</ele>
        <time>2020-07-08T13:22:44.000Z</time>
      </trkpt>
      <trkpt lat="50.12668" lon="3.69499">
        <ele>132.19999694824</ele>
        <time>2020-07-08T13:22:45.000Z</time>
      </trkpt>
      <trkpt lat="50.12671" lon="3.69491">
        <ele>131.80000305176</ele>
        <time>2020-07-08T13:22:46.000Z</time>
      </trkpt>
      <trkpt lat="50.12672" lon="3.69484">
        <ele>131.19999694824</ele>
        <time>2020-07-08T13:22:47.000Z</time>
      </trkpt>
      <trkpt lat="50.12674" lon="3.69476">
        <ele>130.80000305176</ele>
        <time>2020-07-08T13:22:48.000Z</time>
      </trkpt>
      <trkpt lat="50.12686" lon="3.69446">
        <ele>130.80000305176</ele>
        <time>2020-07-08T13:22:53.000Z</time>
      </trkpt>
      <trkpt lat="50.12703" lon="3.694">
        <ele>130.80000305176</ele>
        <time>2020-07-08T13:23:00.000Z</time>
      </trkpt>
      <trkpt lat="50.12708" lon="3.6938">
        <ele>130.80000305176</ele>
        <time>2020-07-08T13:23:03.000Z</time>
      </trkpt>
      <trkpt lat="50.12716" lon="3.69363">
        <ele>130.80000305176</ele>
        <time>2020-07-08T13:23:06.000Z</time>
      </trkpt>
      <trkpt lat="50.12719" lon="3.69356">
        <ele>130.39999389648</ele>
        <time>2020-07-08T13:23:07.000Z</time>
      </trkpt>
      <trkpt lat="50.12722" lon="3.69349">
        <ele>130</ele>
        <time>2020-07-08T13:23:08.000Z</time>
      </trkpt>
      <trkpt lat="50.12725" lon="3.69342">
        <ele>129.60000610352</ele>
        <time>2020-07-08T13:23:09.000Z</time>
      </trkpt>
      <trkpt lat="50.12728" lon="3.69336">
        <ele>129</ele>
        <time>2020-07-08T13:23:10.000Z</time>
      </trkpt>
      <trkpt lat="50.12732" lon="3.6933">
        <ele>128.60000610352</ele>
        <time>2020-07-08T13:23:11.000Z</time>
      </trkpt>
      <trkpt lat="50.12755" lon="3.69291">
        <ele>128.60000610352</ele>
        <time>2020-07-08T13:23:17.000Z</time>
      </trkpt>
      <trkpt lat="50.12779" lon="3.6925">
        <ele>128.60000610352</ele>
        <time>2020-07-08T13:23:24.000Z</time>
      </trkpt>
      <trkpt lat="50.12798" lon="3.69218">
        <ele>128.19999694824</ele>
        <time>2020-07-08T13:23:30.000Z</time>
      </trkpt>
      <trkpt lat="50.12802" lon="3.69213">
        <ele>127.80000305176</ele>
        <time>2020-07-08T13:23:31.000Z</time>
      </trkpt>
      <trkpt lat="50.12806" lon="3.69207">
        <ele>127.40000152588</ele>
        <time>2020-07-08T13:23:32.000Z</time>
      </trkpt>
      <trkpt lat="50.1281" lon="3.69201">
        <ele>127</ele>
        <time>2020-07-08T13:23:33.000Z</time>
      </trkpt>
      <trkpt lat="50.12813" lon="3.69194">
        <ele>126.59999847412</ele>
        <time>2020-07-08T13:23:34.000Z</time>
      </trkpt>
      <trkpt lat="50.12813" lon="3.69186">
        <ele>126.59999847412</ele>
        <time>2020-07-08T13:23:35.000Z</time>
      </trkpt>
      <trkpt lat="50.12804" lon="3.69166">
        <ele>126.59999847412</ele>
        <time>2020-07-08T13:23:38.000Z</time>
      </trkpt>
      <trkpt lat="50.12801" lon="3.6916">
        <ele>126.59999847412</ele>
        <time>2020-07-08T13:23:39.000Z</time>
      </trkpt>
      <trkpt lat="50.12785" lon="3.69129">
        <ele>126.59999847412</ele>
        <time>2020-07-08T13:23:44.000Z</time>
      </trkpt>
      <trkpt lat="50.1276" lon="3.6908">
        <ele>126.59999847412</ele>
        <time>2020-07-08T13:23:52.000Z</time>
      </trkpt>
      <trkpt lat="50.1274" lon="3.69044">
        <ele>126.59999847412</ele>
        <time>2020-07-08T13:23:58.000Z</time>
      </trkpt>
      <trkpt lat="50.12737" lon="3.69038">
        <ele>126.59999847412</ele>
        <time>2020-07-08T13:23:59.000Z</time>
      </trkpt>
      <trkpt lat="50.12721" lon="3.68998">
        <ele>126.59999847412</ele>
        <time>2020-07-08T13:24:05.000Z</time>
      </trkpt>
      <trkpt lat="50.12701" lon="3.68951">
        <ele>126.59999847412</ele>
        <time>2020-07-08T13:24:13.000Z</time>
      </trkpt>
      <trkpt lat="50.12682" lon="3.6892">
        <ele>126.59999847412</ele>
        <time>2020-07-08T13:24:19.000Z</time>
      </trkpt>
      <trkpt lat="50.1267" lon="3.68896">
        <ele>126.59999847412</ele>
        <time>2020-07-08T13:24:24.000Z</time>
      </trkpt>
      <trkpt lat="50.12657" lon="3.68863">
        <ele>126.59999847412</ele>
        <time>2020-07-08T13:24:30.000Z</time>
      </trkpt>
      <trkpt lat="50.12649" lon="3.68832">
        <ele>127</ele>
        <time>2020-07-08T13:24:36.000Z</time>
      </trkpt>
      <trkpt lat="50.12648" lon="3.68828">
        <ele>127.40000152588</ele>
        <time>2020-07-08T13:24:37.000Z</time>
      </trkpt>
      <trkpt lat="50.12648" lon="3.68823">
        <ele>127.80000305176</ele>
        <time>2020-07-08T13:24:38.000Z</time>
      </trkpt>
      <trkpt lat="50.1265" lon="3.68821">
        <ele>128.19999694824</ele>
        <time>2020-07-08T13:24:39.000Z</time>
      </trkpt>
      <trkpt lat="50.12651" lon="3.68818">
        <ele>128.60000610352</ele>
        <time>2020-07-08T13:24:40.000Z</time>
      </trkpt>
      <trkpt lat="50.12662" lon="3.68808">
        <ele>128.60000610352</ele>
        <time>2020-07-08T13:24:43.000Z</time>
      </trkpt>
      <trkpt lat="50.1267" lon="3.68798">
        <ele>128.60000610352</ele>
        <time>2020-07-08T13:24:45.000Z</time>
      </trkpt>
      <trkpt lat="50.12701" lon="3.6876">
        <ele>128.60000610352</ele>
        <time>2020-07-08T13:24:52.000Z</time>
      </trkpt>
      <trkpt lat="50.12735" lon="3.68713">
        <ele>128.60000610352</ele>
        <time>2020-07-08T13:25:00.000Z</time>
      </trkpt>
      <trkpt lat="50.12739" lon="3.68709">
        <ele>128.60000610352</ele>
        <time>2020-07-08T13:25:01.000Z</time>
      </trkpt>
      <trkpt lat="50.12759" lon="3.68678">
        <ele>128.60000610352</ele>
        <time>2020-07-08T13:25:06.000Z</time>
      </trkpt>
      <trkpt lat="50.12776" lon="3.68654">
        <ele>128.60000610352</ele>
        <time>2020-07-08T13:25:11.000Z</time>
      </trkpt>
      <trkpt lat="50.12791" lon="3.68633">
        <ele>128.60000610352</ele>
        <time>2020-07-08T13:25:15.000Z</time>
      </trkpt>
      <trkpt lat="50.12794" lon="3.68628">
        <ele>128.60000610352</ele>
        <time>2020-07-08T13:25:16.000Z</time>
      </trkpt>
      <trkpt lat="50.12801" lon="3.68616">
        <ele>128.60000610352</ele>
        <time>2020-07-08T13:25:18.000Z</time>
      </trkpt>
      <trkpt lat="50.1281" lon="3.68595">
        <ele>128.60000610352</ele>
        <time>2020-07-08T13:25:21.000Z</time>
      </trkpt>
      <trkpt lat="50.12829" lon="3.68545">
        <ele>128.60000610352</ele>
        <time>2020-07-08T13:25:28.000Z</time>
      </trkpt>
      <trkpt lat="50.12843" lon="3.68495">
        <ele>128.60000610352</ele>
        <time>2020-07-08T13:25:35.000Z</time>
      </trkpt>
      <trkpt lat="50.12862" lon="3.68428">
        <ele>128.60000610352</ele>
        <time>2020-07-08T13:25:45.000Z</time>
      </trkpt>
      <trkpt lat="50.12866" lon="3.68395">
        <ele>128.60000610352</ele>
        <time>2020-07-08T13:25:51.000Z</time>
      </trkpt>
      <trkpt lat="50.12864" lon="3.68391">
        <ele>128.60000610352</ele>
        <time>2020-07-08T13:25:52.000Z</time>
      </trkpt>
      <trkpt lat="50.12856" lon="3.68387">
        <ele>128.60000610352</ele>
        <time>2020-07-08T13:25:54.000Z</time>
      </trkpt>
      <trkpt lat="50.12843" lon="3.68398">
        <ele>128.60000610352</ele>
        <time>2020-07-08T13:25:57.000Z</time>
      </trkpt>
      <trkpt lat="50.1284" lon="3.68404">
        <ele>128.60000610352</ele>
        <time>2020-07-08T13:25:58.000Z</time>
      </trkpt>
      <trkpt lat="50.12814" lon="3.68432">
        <ele>128.60000610352</ele>
        <time>2020-07-08T13:26:04.000Z</time>
      </trkpt>
      <trkpt lat="50.12809" lon="3.68433">
        <ele>128.60000610352</ele>
        <time>2020-07-08T13:26:05.000Z</time>
      </trkpt>
      <trkpt lat="50.12804" lon="3.68433">
        <ele>128.60000610352</ele>
        <time>2020-07-08T13:26:06.000Z</time>
      </trkpt>
      <trkpt lat="50.12792" lon="3.68419">
        <ele>128.60000610352</ele>
        <time>2020-07-08T13:26:09.000Z</time>
      </trkpt>
      <trkpt lat="50.1279" lon="3.68411">
        <ele>128.19999694824</ele>
        <time>2020-07-08T13:26:10.000Z</time>
      </trkpt>
      <trkpt lat="50.12787" lon="3.68404">
        <ele>127.80000305176</ele>
        <time>2020-07-08T13:26:11.000Z</time>
      </trkpt>
      <trkpt lat="50.12785" lon="3.68396">
        <ele>127.40000152588</ele>
        <time>2020-07-08T13:26:12.000Z</time>
      </trkpt>
      <trkpt lat="50.12783" lon="3.68388">
        <ele>127</ele>
        <time>2020-07-08T13:26:13.000Z</time>
      </trkpt>
      <trkpt lat="50.1278" lon="3.6838">
        <ele>126.59999847412</ele>
        <time>2020-07-08T13:26:14.000Z</time>
      </trkpt>
      <trkpt lat="50.12778" lon="3.68372">
        <ele>126.59999847412</ele>
        <time>2020-07-08T13:26:15.000Z</time>
      </trkpt>
      <trkpt lat="50.12769" lon="3.68341">
        <ele>126.59999847412</ele>
        <time>2020-07-08T13:26:19.000Z</time>
      </trkpt>
      <trkpt lat="50.12765" lon="3.68325">
        <ele>126.59999847412</ele>
        <time>2020-07-08T13:26:21.000Z</time>
      </trkpt>
      <trkpt lat="50.12755" lon="3.68295">
        <ele>126.59999847412</ele>
        <time>2020-07-08T13:26:25.000Z</time>
      </trkpt>
      <trkpt lat="50.12749" lon="3.6828">
        <ele>126.59999847412</ele>
        <time>2020-07-08T13:26:27.000Z</time>
      </trkpt>
      <trkpt lat="50.12739" lon="3.68245">
        <ele>126.59999847412</ele>
        <time>2020-07-08T13:26:31.000Z</time>
      </trkpt>
      <trkpt lat="50.12733" lon="3.6823">
        <ele>126.59999847412</ele>
        <time>2020-07-08T13:26:33.000Z</time>
      </trkpt>
      <trkpt lat="50.12719" lon="3.68187">
        <ele>126.59999847412</ele>
        <time>2020-07-08T13:26:39.000Z</time>
      </trkpt>
      <trkpt lat="50.12716" lon="3.6818">
        <ele>126.59999847412</ele>
        <time>2020-07-08T13:26:40.000Z</time>
      </trkpt>
      <trkpt lat="50.12705" lon="3.68156">
        <ele>126.59999847412</ele>
        <time>2020-07-08T13:26:44.000Z</time>
      </trkpt>
      <trkpt lat="50.12703" lon="3.68149">
        <ele>126.19999694824</ele>
        <time>2020-07-08T13:26:45.000Z</time>
      </trkpt>
      <trkpt lat="50.127" lon="3.68143">
        <ele>125.80000305176</ele>
        <time>2020-07-08T13:26:46.000Z</time>
      </trkpt>
      <trkpt lat="50.12695" lon="3.6813">
        <ele>125.40000152588</ele>
        <time>2020-07-08T13:26:48.000Z</time>
      </trkpt>
      <trkpt lat="50.12692" lon="3.68124">
        <ele>125</ele>
        <time>2020-07-08T13:26:49.000Z</time>
      </trkpt>
      <trkpt lat="50.12689" lon="3.68118">
        <ele>124.40000152588</ele>
        <time>2020-07-08T13:26:50.000Z</time>
      </trkpt>
      <trkpt lat="50.12687" lon="3.68111">
        <ele>124.40000152588</ele>
        <time>2020-07-08T13:26:51.000Z</time>
      </trkpt>
      <trkpt lat="50.12665" lon="3.68065">
        <ele>124.40000152588</ele>
        <time>2020-07-08T13:26:58.000Z</time>
      </trkpt>
      <trkpt lat="50.12648" lon="3.68027">
        <ele>124.40000152588</ele>
        <time>2020-07-08T13:27:03.000Z</time>
      </trkpt>
      <trkpt lat="50.12645" lon="3.6802">
        <ele>124</ele>
        <time>2020-07-08T13:27:04.000Z</time>
      </trkpt>
      <trkpt lat="50.12641" lon="3.68012">
        <ele>123.59999847412</ele>
        <time>2020-07-08T13:27:05.000Z</time>
      </trkpt>
      <trkpt lat="50.12637" lon="3.68004">
        <ele>123.19999694824</ele>
        <time>2020-07-08T13:27:06.000Z</time>
      </trkpt>
      <trkpt lat="50.12633" lon="3.67996">
        <ele>122.80000305176</ele>
        <time>2020-07-08T13:27:07.000Z</time>
      </trkpt>
      <trkpt lat="50.12628" lon="3.67987">
        <ele>122.40000152588</ele>
        <time>2020-07-08T13:27:08.000Z</time>
      </trkpt>
      <trkpt lat="50.1262" lon="3.67979">
        <ele>122.40000152588</ele>
        <time>2020-07-08T13:27:09.000Z</time>
      </trkpt>
      <trkpt lat="50.12588" lon="3.6792">
        <ele>122.40000152588</ele>
        <time>2020-07-08T13:27:16.000Z</time>
      </trkpt>
      <trkpt lat="50.12564" lon="3.67889">
        <ele>122.40000152588</ele>
        <time>2020-07-08T13:27:20.000Z</time>
      </trkpt>
      <trkpt lat="50.12531" lon="3.67866">
        <ele>122.40000152588</ele>
        <time>2020-07-08T13:27:25.000Z</time>
      </trkpt>
      <trkpt lat="50.12519" lon="3.67854">
        <ele>122.80000305176</ele>
        <time>2020-07-08T13:27:28.000Z</time>
      </trkpt>
      <trkpt lat="50.12515" lon="3.6785">
        <ele>123.19999694824</ele>
        <time>2020-07-08T13:27:29.000Z</time>
      </trkpt>
      <trkpt lat="50.12512" lon="3.67847">
        <ele>123.59999847412</ele>
        <time>2020-07-08T13:27:30.000Z</time>
      </trkpt>
      <trkpt lat="50.12511" lon="3.67843">
        <ele>124</ele>
        <time>2020-07-08T13:27:31.000Z</time>
      </trkpt>
      <trkpt lat="50.1251" lon="3.6784">
        <ele>124.40000152588</ele>
        <time>2020-07-08T13:27:32.000Z</time>
      </trkpt>
      <trkpt lat="50.12491" lon="3.67819">
        <ele>124.40000152588</ele>
        <time>2020-07-08T13:27:40.000Z</time>
      </trkpt>
      <trkpt lat="50.12485" lon="3.67811">
        <ele>124.40000152588</ele>
        <time>2020-07-08T13:27:42.000Z</time>
      </trkpt>
    </trkseg>
  </trk>
</gpx>